sensor_id;sensor_type;location;lat;lon;timestamp;P1;durP1;ratioP1;P2;durP2;ratioP2
21806;SDS011;11065;50.786;7.840;2022-09-02T00:01:02;3.43;;;1.00;;
21806;SDS011;11065;50.786;7.840;2022-09-02T00:03:37;1.83;;;0.87;;
21806;SDS011;11065;50.786;7.840;2022-09-02T00:06:04;3.67;;;0.73;;
21806;SDS011;11065;50.786;7.840;2022-09-02T00:08:31;4.97;;;1.53;;
21806;SDS011;11065;50.786;7.840;2022-09-02T00:10:59;2.13;;;0.90;;
21806;SDS011;11065;50.786;7.840;2022-09-02T00:13:28;2.10;;;0.80;;
21806;SDS011;11065;50.786;7.840;2022-09-02T00:15:56;1.73;;;0.90;;
21806;SDS011;11065;50.786;7.840;2022-09-02T00:18:22;4.27;;;0.90;;
21806;SDS011;11065;50.786;7.840;2022-09-02T00:20:50;1.37;;;0.67;;
21806;SDS011;11065;50.786;7.840;2022-09-02T00:23:17;2.37;;;0.70;;
21806;SDS011;11065;50.786;7.840;2022-09-02T00:25:45;4.20;;;0.93;;
21806;SDS011;11065;50.786;7.840;2022-09-02T00:28:12;2.67;;;0.90;;
21806;SDS011;11065;50.786;7.840;2022-09-02T00:30:42;1.60;;;0.80;;
21806;SDS011;11065;50.786;7.840;2022-09-02T00:33:09;2.07;;;0.90;;
21806;SDS011;11065;50.786;7.840;2022-09-02T00:35:37;1.40;;;0.73;;
21806;SDS011;11065;50.786;7.840;2022-09-02T00:38:04;2.87;;;1.00;;
21806;SDS011;11065;50.786;7.840;2022-09-02T00:40:32;2.30;;;0.80;;
21806;SDS011;11065;50.786;7.840;2022-09-02T00:42:59;1.63;;;0.87;;
21806;SDS011;11065;50.786;7.840;2022-09-02T00:45:27;2.43;;;0.80;;
21806;SDS011;11065;50.786;7.840;2022-09-02T00:47:54;2.07;;;1.23;;
21806;SDS011;11065;50.786;7.840;2022-09-02T00:50:23;3.90;;;0.90;;
21806;SDS011;11065;50.786;7.840;2022-09-02T00:52:57;1.67;;;0.80;;
21806;SDS011;11065;50.786;7.840;2022-09-02T00:55:32;3.30;;;1.00;;
21806;SDS011;11065;50.786;7.840;2022-09-02T00:58:13;3.03;;;0.90;;
21806;SDS011;11065;50.786;7.840;2022-09-02T01:00:50;1.00;;;0.70;;
21806;SDS011;11065;50.786;7.840;2022-09-02T01:03:23;1.27;;;0.70;;
21806;SDS011;11065;50.786;7.840;2022-09-02T01:05:52;2.20;;;0.80;;
21806;SDS011;11065;50.786;7.840;2022-09-02T01:08:25;1.40;;;0.70;;
21806;SDS011;11065;50.786;7.840;2022-09-02T01:10:55;1.93;;;0.80;;
21806;SDS011;11065;50.786;7.840;2022-09-02T01:13:23;1.30;;;0.80;;
21806;SDS011;11065;50.786;7.840;2022-09-02T01:16:35;1.30;;;0.70;;
21806;SDS011;11065;50.786;7.840;2022-09-02T01:18:49;1.40;;;0.70;;
21806;SDS011;11065;50.786;7.840;2022-09-02T01:21:17;2.20;;;0.80;;
21806;SDS011;11065;50.786;7.840;2022-09-02T01:23:45;3.50;;;0.77;;
21806;SDS011;11065;50.786;7.840;2022-09-02T01:26:13;1.30;;;0.70;;
21806;SDS011;11065;50.786;7.840;2022-09-02T01:28:40;1.37;;;0.70;;
21806;SDS011;11065;50.786;7.840;2022-09-02T01:31:07;2.67;;;0.60;;
21806;SDS011;11065;50.786;7.840;2022-09-02T01:33:34;1.33;;;0.70;;
21806;SDS011;11065;50.786;7.840;2022-09-02T01:36:02;1.83;;;0.63;;
21806;SDS011;11065;50.786;7.840;2022-09-02T01:38:30;2.37;;;0.70;;
21806;SDS011;11065;50.786;7.840;2022-09-02T01:40:57;1.77;;;0.90;;
21806;SDS011;11065;50.786;7.840;2022-09-02T01:43:25;1.40;;;0.63;;
21806;SDS011;11065;50.786;7.840;2022-09-02T01:45:53;1.07;;;0.63;;
21806;SDS011;11065;50.786;7.840;2022-09-02T01:48:25;3.27;;;0.80;;
21806;SDS011;11065;50.786;7.840;2022-09-02T01:50:55;1.33;;;0.80;;
21806;SDS011;11065;50.786;7.840;2022-09-02T01:53:24;2.37;;;0.80;;
21806;SDS011;11065;50.786;7.840;2022-09-02T01:55:52;1.40;;;0.77;;
21806;SDS011;11065;50.786;7.840;2022-09-02T01:58:20;1.60;;;0.80;;
21806;SDS011;11065;50.786;7.840;2022-09-02T02:00:48;1.17;;;0.60;;
21806;SDS011;11065;50.786;7.840;2022-09-02T02:03:15;1.00;;;0.70;;
21806;SDS011;11065;50.786;7.840;2022-09-02T02:05:42;2.20;;;0.70;;
21806;SDS011;11065;50.786;7.840;2022-09-02T02:08:13;1.70;;;0.73;;
21806;SDS011;11065;50.786;7.840;2022-09-02T02:10:40;2.80;;;0.70;;
21806;SDS011;11065;50.786;7.840;2022-09-02T02:13:11;1.17;;;0.50;;
21806;SDS011;11065;50.786;7.840;2022-09-02T02:15:39;2.30;;;0.80;;
21806;SDS011;11065;50.786;7.840;2022-09-02T02:18:08;2.93;;;0.80;;
21806;SDS011;11065;50.786;7.840;2022-09-02T02:20:36;1.83;;;0.70;;
21806;SDS011;11065;50.786;7.840;2022-09-02T02:23:04;1.20;;;0.70;;
21806;SDS011;11065;50.786;7.840;2022-09-02T02:25:31;1.30;;;0.57;;
21806;SDS011;11065;50.786;7.840;2022-09-02T02:27:59;0.90;;;0.60;;
21806;SDS011;11065;50.786;7.840;2022-09-02T02:30:28;1.97;;;0.80;;
21806;SDS011;11065;50.786;7.840;2022-09-02T02:32:55;1.30;;;0.80;;
21806;SDS011;11065;50.786;7.840;2022-09-02T02:35:23;2.33;;;0.63;;
21806;SDS011;11065;50.786;7.840;2022-09-02T02:37:51;1.33;;;0.60;;
21806;SDS011;11065;50.786;7.840;2022-09-02T02:40:19;1.60;;;0.77;;
21806;SDS011;11065;50.786;7.840;2022-09-02T02:42:48;2.00;;;0.77;;
21806;SDS011;11065;50.786;7.840;2022-09-02T02:45:15;1.60;;;0.70;;
21806;SDS011;11065;50.786;7.840;2022-09-02T02:47:43;2.13;;;0.73;;
21806;SDS011;11065;50.786;7.840;2022-09-02T02:50:14;1.93;;;0.67;;
21806;SDS011;11065;50.786;7.840;2022-09-02T02:52:45;1.40;;;0.70;;
21806;SDS011;11065;50.786;7.840;2022-09-02T02:55:16;1.60;;;0.60;;
21806;SDS011;11065;50.786;7.840;2022-09-02T02:57:43;1.43;;;0.70;;
21806;SDS011;11065;50.786;7.840;2022-09-02T03:00:12;3.30;;;0.73;;
21806;SDS011;11065;50.786;7.840;2022-09-02T03:02:47;1.87;;;0.80;;
21806;SDS011;11065;50.786;7.840;2022-09-02T03:05:18;1.20;;;0.60;;
21806;SDS011;11065;50.786;7.840;2022-09-02T03:07:46;1.27;;;0.60;;
21806;SDS011;11065;50.786;7.840;2022-09-02T03:10:14;1.17;;;0.70;;
21806;SDS011;11065;50.786;7.840;2022-09-02T03:12:42;1.93;;;0.60;;
21806;SDS011;11065;50.786;7.840;2022-09-02T03:15:16;1.53;;;0.80;;
21806;SDS011;11065;50.786;7.840;2022-09-02T03:17:45;1.10;;;0.70;;
21806;SDS011;11065;50.786;7.840;2022-09-02T03:20:13;0.93;;;0.60;;
21806;SDS011;11065;50.786;7.840;2022-09-02T03:22:45;1.83;;;0.60;;
21806;SDS011;11065;50.786;7.840;2022-09-02T03:25:15;1.93;;;0.70;;
21806;SDS011;11065;50.786;7.840;2022-09-02T03:27:45;1.00;;;0.70;;
21806;SDS011;11065;50.786;7.840;2022-09-02T03:30:14;1.27;;;0.70;;
21806;SDS011;11065;50.786;7.840;2022-09-02T03:32:44;1.93;;;0.70;;
21806;SDS011;11065;50.786;7.840;2022-09-02T03:35:13;1.10;;;0.60;;
21806;SDS011;11065;50.786;7.840;2022-09-02T03:37:41;2.73;;;0.73;;
21806;SDS011;11065;50.786;7.840;2022-09-02T03:40:09;2.07;;;0.90;;
21806;SDS011;11065;50.786;7.840;2022-09-02T03:42:38;2.80;;;1.00;;
21806;SDS011;11065;50.786;7.840;2022-09-02T03:45:08;2.53;;;0.57;;
21806;SDS011;11065;50.786;7.840;2022-09-02T03:47:36;2.33;;;0.80;;
21806;SDS011;11065;50.786;7.840;2022-09-02T03:50:09;1.87;;;0.60;;
21806;SDS011;11065;50.786;7.840;2022-09-02T03:52:37;1.47;;;0.70;;
21806;SDS011;11065;50.786;7.840;2022-09-02T03:55:04;1.37;;;0.87;;
21806;SDS011;11065;50.786;7.840;2022-09-02T03:57:33;1.27;;;0.70;;
21806;SDS011;11065;50.786;7.840;2022-09-02T04:00:02;2.30;;;0.73;;
21806;SDS011;11065;50.786;7.840;2022-09-02T04:02:39;2.33;;;0.77;;
21806;SDS011;11065;50.786;7.840;2022-09-02T04:05:10;2.17;;;0.80;;
21806;SDS011;11065;50.786;7.840;2022-09-02T04:07:43;0.90;;;0.70;;
21806;SDS011;11065;50.786;7.840;2022-09-02T04:10:13;2.13;;;0.70;;
21806;SDS011;11065;50.786;7.840;2022-09-02T04:12:40;2.50;;;0.80;;
21806;SDS011;11065;50.786;7.840;2022-09-02T04:15:09;1.30;;;0.70;;
21806;SDS011;11065;50.786;7.840;2022-09-02T04:17:39;1.30;;;0.80;;
21806;SDS011;11065;50.786;7.840;2022-09-02T04:20:10;2.30;;;0.80;;
21806;SDS011;11065;50.786;7.840;2022-09-02T04:22:38;1.53;;;0.60;;
21806;SDS011;11065;50.786;7.840;2022-09-02T04:25:06;2.73;;;0.70;;
21806;SDS011;11065;50.786;7.840;2022-09-02T04:27:35;2.20;;;0.80;;
21806;SDS011;11065;50.786;7.840;2022-09-02T04:30:04;2.10;;;0.80;;
21806;SDS011;11065;50.786;7.840;2022-09-02T04:32:34;2.00;;;0.70;;
21806;SDS011;11065;50.786;7.840;2022-09-02T04:35:07;1.57;;;0.70;;
21806;SDS011;11065;50.786;7.840;2022-09-02T04:37:35;1.43;;;0.80;;
21806;SDS011;11065;50.786;7.840;2022-09-02T04:40:02;1.97;;;0.70;;
21806;SDS011;11065;50.786;7.840;2022-09-02T04:42:30;1.73;;;0.90;;
21806;SDS011;11065;50.786;7.840;2022-09-02T04:44:57;1.23;;;0.70;;
21806;SDS011;11065;50.786;7.840;2022-09-02T04:47:26;1.57;;;0.60;;
21806;SDS011;11065;50.786;7.840;2022-09-02T04:49:54;1.67;;;0.73;;
21806;SDS011;11065;50.786;7.840;2022-09-02T04:52:21;1.57;;;0.83;;
21806;SDS011;11065;50.786;7.840;2022-09-02T04:54:48;1.97;;;1.20;;
21806;SDS011;11065;50.786;7.840;2022-09-02T04:57:15;1.83;;;0.80;;
21806;SDS011;11065;50.786;7.840;2022-09-02T04:59:43;3.37;;;0.80;;
21806;SDS011;11065;50.786;7.840;2022-09-02T05:02:10;3.77;;;1.43;;
21806;SDS011;11065;50.786;7.840;2022-09-02T05:04:38;1.77;;;0.80;;
21806;SDS011;11065;50.786;7.840;2022-09-02T05:07:12;1.83;;;0.80;;
21806;SDS011;11065;50.786;7.840;2022-09-02T05:09:43;2.37;;;0.80;;
21806;SDS011;11065;50.786;7.840;2022-09-02T05:12:11;1.93;;;1.00;;
21806;SDS011;11065;50.786;7.840;2022-09-02T05:14:43;1.93;;;1.10;;
21806;SDS011;11065;50.786;7.840;2022-09-02T05:17:10;3.03;;;0.97;;
21806;SDS011;11065;50.786;7.840;2022-09-02T05:19:40;3.57;;;0.90;;
21806;SDS011;11065;50.786;7.840;2022-09-02T05:22:08;2.43;;;0.80;;
21806;SDS011;11065;50.786;7.840;2022-09-02T05:24:38;4.37;;;0.90;;
21806;SDS011;11065;50.786;7.840;2022-09-02T05:27:09;3.23;;;0.90;;
21806;SDS011;11065;50.786;7.840;2022-09-02T05:29:37;2.47;;;0.90;;
21806;SDS011;11065;50.786;7.840;2022-09-02T05:32:06;2.83;;;1.00;;
21806;SDS011;11065;50.786;7.840;2022-09-02T05:34:35;1.50;;;0.80;;
21806;SDS011;11065;50.786;7.840;2022-09-02T05:37:02;2.33;;;1.30;;
21806;SDS011;11065;50.786;7.840;2022-09-02T05:39:33;1.63;;;0.87;;
21806;SDS011;11065;50.786;7.840;2022-09-02T05:42:03;1.63;;;0.70;;
21806;SDS011;11065;50.786;7.840;2022-09-02T05:44:31;2.43;;;1.20;;
21806;SDS011;11065;50.786;7.840;2022-09-02T05:47:01;2.97;;;0.90;;
21806;SDS011;11065;50.786;7.840;2022-09-02T05:49:28;3.10;;;0.80;;
21806;SDS011;11065;50.786;7.840;2022-09-02T05:51:59;3.50;;;0.80;;
21806;SDS011;11065;50.786;7.840;2022-09-02T05:54:38;1.70;;;0.90;;
21806;SDS011;11065;50.786;7.840;2022-09-02T05:57:10;2.00;;;0.97;;
21806;SDS011;11065;50.786;7.840;2022-09-02T05:59:57;1.87;;;0.77;;
21806;SDS011;11065;50.786;7.840;2022-09-02T06:02:38;2.60;;;0.80;;
21806;SDS011;11065;50.786;7.840;2022-09-02T06:05:08;2.33;;;0.90;;
21806;SDS011;11065;50.786;7.840;2022-09-02T06:07:42;1.60;;;0.90;;
21806;SDS011;11065;50.786;7.840;2022-09-02T06:10:09;3.00;;;0.90;;
21806;SDS011;11065;50.786;7.840;2022-09-02T06:12:36;1.30;;;0.83;;
21806;SDS011;11065;50.786;7.840;2022-09-02T06:15:08;3.03;;;1.00;;
21806;SDS011;11065;50.786;7.840;2022-09-02T06:17:37;1.77;;;1.00;;
21806;SDS011;11065;50.786;7.840;2022-09-02T06:20:05;2.77;;;0.80;;
21806;SDS011;11065;50.786;7.840;2022-09-02T06:22:32;3.47;;;1.60;;
21806;SDS011;11065;50.786;7.840;2022-09-02T06:24:59;2.30;;;0.90;;
21806;SDS011;11065;50.786;7.840;2022-09-02T06:27:27;1.47;;;0.80;;
21806;SDS011;11065;50.786;7.840;2022-09-02T06:29:54;2.60;;;1.40;;
21806;SDS011;11065;50.786;7.840;2022-09-02T06:32:23;1.47;;;0.80;;
21806;SDS011;11065;50.786;7.840;2022-09-02T06:34:56;1.43;;;0.90;;
21806;SDS011;11065;50.786;7.840;2022-09-02T06:37:25;1.43;;;1.10;;
21806;SDS011;11065;50.786;7.840;2022-09-02T06:39:53;2.37;;;0.83;;
21806;SDS011;11065;50.786;7.840;2022-09-02T06:42:22;1.77;;;0.90;;
21806;SDS011;11065;50.786;7.840;2022-09-02T06:45:05;2.60;;;0.70;;
21806;SDS011;11065;50.786;7.840;2022-09-02T06:47:34;3.90;;;0.87;;
21806;SDS011;11065;50.786;7.840;2022-09-02T06:50:02;3.80;;;1.00;;
21806;SDS011;11065;50.786;7.840;2022-09-02T06:52:29;1.63;;;0.80;;
21806;SDS011;11065;50.786;7.840;2022-09-02T06:54:58;1.60;;;0.70;;
21806;SDS011;11065;50.786;7.840;2022-09-02T06:57:25;1.97;;;0.70;;
21806;SDS011;11065;50.786;7.840;2022-09-02T07:00:00;3.17;;;1.00;;
21806;SDS011;11065;50.786;7.840;2022-09-02T07:02:32;3.67;;;0.90;;
21806;SDS011;11065;50.786;7.840;2022-09-02T07:05:01;2.30;;;0.90;;
21806;SDS011;11065;50.786;7.840;2022-09-02T07:07:42;1.37;;;0.70;;
21806;SDS011;11065;50.786;7.840;2022-09-02T07:10:13;0.70;;;0.60;;
21806;SDS011;11065;50.786;7.840;2022-09-02T07:12:44;1.87;;;0.77;;
21806;SDS011;11065;50.786;7.840;2022-09-02T07:15:14;1.70;;;0.63;;
21806;SDS011;11065;50.786;7.840;2022-09-02T07:17:41;1.63;;;0.83;;
21806;SDS011;11065;50.786;7.840;2022-09-02T07:20:14;2.67;;;0.80;;
21806;SDS011;11065;50.786;7.840;2022-09-02T07:22:46;1.63;;;0.80;;
21806;SDS011;11065;50.786;7.840;2022-09-02T07:25:20;2.67;;;1.20;;
21806;SDS011;11065;50.786;7.840;2022-09-02T07:27:48;2.20;;;0.90;;
21806;SDS011;11065;50.786;7.840;2022-09-02T07:30:17;3.83;;;0.90;;
21806;SDS011;11065;50.786;7.840;2022-09-02T07:32:46;1.33;;;0.80;;
21806;SDS011;11065;50.786;7.840;2022-09-02T07:35:14;1.33;;;0.80;;
21806;SDS011;11065;50.786;7.840;2022-09-02T07:37:43;1.80;;;0.90;;
21806;SDS011;11065;50.786;7.840;2022-09-02T07:40:10;2.17;;;1.00;;
21806;SDS011;11065;50.786;7.840;2022-09-02T07:42:37;1.10;;;0.80;;
21806;SDS011;11065;50.786;7.840;2022-09-02T07:45:04;1.07;;;0.80;;
21806;SDS011;11065;50.786;7.840;2022-09-02T07:47:34;2.17;;;1.00;;
21806;SDS011;11065;50.786;7.840;2022-09-02T07:50:04;1.37;;;0.97;;
21806;SDS011;11065;50.786;7.840;2022-09-02T07:52:54;2.07;;;0.80;;
21806;SDS011;11065;50.786;7.840;2022-09-02T07:55:25;1.63;;;0.80;;
21806;SDS011;11065;50.786;7.840;2022-09-02T07:57:52;3.40;;;0.73;;
21806;SDS011;11065;50.786;7.840;2022-09-02T08:00:22;2.80;;;0.83;;
21806;SDS011;11065;50.786;7.840;2022-09-02T08:03:00;1.87;;;1.10;;
21806;SDS011;11065;50.786;7.840;2022-09-02T08:05:36;1.13;;;0.70;;
21806;SDS011;11065;50.786;7.840;2022-09-02T08:08:04;1.30;;;0.80;;
21806;SDS011;11065;50.786;7.840;2022-09-02T08:10:33;1.97;;;0.70;;
21806;SDS011;11065;50.786;7.840;2022-09-02T08:13:00;1.40;;;0.87;;
21806;SDS011;11065;50.786;7.840;2022-09-02T08:15:28;2.10;;;0.90;;
21806;SDS011;11065;50.786;7.840;2022-09-02T08:17:56;1.30;;;0.90;;
21806;SDS011;11065;50.786;7.840;2022-09-02T08:20:23;1.53;;;0.80;;
21806;SDS011;11065;50.786;7.840;2022-09-02T08:22:50;1.13;;;0.73;;
21806;SDS011;11065;50.786;7.840;2022-09-02T08:25:36;2.17;;;0.77;;
21806;SDS011;11065;50.786;7.840;2022-09-02T08:28:03;1.30;;;0.90;;
21806;SDS011;11065;50.786;7.840;2022-09-02T08:30:30;1.67;;;1.00;;
21806;SDS011;11065;50.786;7.840;2022-09-02T08:32:56;1.53;;;1.00;;
21806;SDS011;11065;50.786;7.840;2022-09-02T08:35:23;1.77;;;1.00;;
21806;SDS011;11065;50.786;7.840;2022-09-02T08:37:51;2.30;;;0.90;;
21806;SDS011;11065;50.786;7.840;2022-09-02T08:40:19;2.85;;;0.95;;
21806;SDS011;11065;50.786;7.840;2022-09-02T08:42:50;1.90;;;0.70;;
21806;SDS011;11065;50.786;7.840;2022-09-02T08:45:32;5.95;;;0.80;;
21806;SDS011;11065;50.786;7.840;2022-09-02T08:48:12;1.48;;;0.73;;
21806;SDS011;11065;50.786;7.840;2022-09-02T08:50:48;4.65;;;0.60;;
21806;SDS011;11065;50.786;7.840;2022-09-02T08:53:37;3.03;;;0.70;;
21806;SDS011;11065;50.786;7.840;2022-09-02T08:56:11;1.35;;;0.60;;
21806;SDS011;11065;50.786;7.840;2022-09-02T08:58:48;1.42;;;0.73;;
21806;SDS011;11065;50.786;7.840;2022-09-02T09:07:02;1.05;;;0.57;;
21806;SDS011;11065;50.786;7.840;2022-09-02T09:09:57;1.30;;;0.68;;
21806;SDS011;11065;50.786;7.840;2022-09-02T09:12:36;0.93;;;0.65;;
21806;SDS011;11065;50.786;7.840;2022-09-02T09:15:43;1.27;;;0.73;;
21806;SDS011;11065;50.786;7.840;2022-09-02T09:19:12;1.17;;;0.60;;
21806;SDS011;11065;50.786;7.840;2022-09-02T09:21:18;1.30;;;0.80;;
21806;SDS011;11065;50.786;7.840;2022-09-02T09:23:45;2.92;;;0.60;;
21806;SDS011;11065;50.786;7.840;2022-09-02T09:26:18;3.65;;;0.60;;
21806;SDS011;11065;50.786;7.840;2022-09-02T09:28:52;1.20;;;0.63;;
21806;SDS011;11065;50.786;7.840;2022-09-02T09:31:21;0.70;;;0.50;;
21806;SDS011;11065;50.786;7.840;2022-09-02T09:39:17;2.70;;;0.68;;
21806;SDS011;11065;50.786;7.840;2022-09-02T09:41:48;0.95;;;0.60;;
21806;SDS011;11065;50.786;7.840;2022-09-02T09:44:27;1.42;;;0.60;;
21806;SDS011;11065;50.786;7.840;2022-09-02T09:52:44;1.20;;;0.65;;
21806;SDS011;11065;50.786;7.840;2022-09-02T09:57:50;1.00;;;0.68;;
21806;SDS011;11065;50.786;7.840;2022-09-02T10:00:26;1.45;;;0.80;;
21806;SDS011;11065;50.786;7.840;2022-09-02T10:03:01;0.70;;;0.60;;
21806;SDS011;11065;50.786;7.840;2022-09-02T10:05:35;1.27;;;0.68;;
21806;SDS011;11065;50.786;7.840;2022-09-02T10:10:58;2.03;;;1.02;;
21806;SDS011;11065;50.786;7.840;2022-09-02T10:13:31;2.72;;;1.85;;
21806;SDS011;11065;50.786;7.840;2022-09-02T10:24:45;8.73;;;6.90;;
21806;SDS011;11065;50.786;7.840;2022-09-02T10:27:29;8.90;;;5.25;;
21806;SDS011;11065;50.786;7.840;2022-09-02T10:30:19;3.83;;;2.65;;
21806;SDS011;11065;50.786;7.840;2022-09-02T10:32:52;5.43;;;3.75;;
21806;SDS011;11065;50.786;7.840;2022-09-02T10:38:34;2.13;;;1.17;;
21806;SDS011;11065;50.786;7.840;2022-09-02T10:41:18;3.30;;;2.10;;
21806;SDS011;11065;50.786;7.840;2022-09-02T10:43:59;3.50;;;2.40;;
21806;SDS011;11065;50.786;7.840;2022-09-02T10:47:02;2.22;;;1.30;;
21806;SDS011;11065;50.786;7.840;2022-09-02T10:52:56;5.18;;;1.80;;
21806;SDS011;11065;50.786;7.840;2022-09-02T10:55:53;1.85;;;1.00;;
21806;SDS011;11065;50.786;7.840;2022-09-02T10:58:36;1.63;;;0.85;;
21806;SDS011;11065;50.786;7.840;2022-09-02T11:01:18;3.30;;;0.70;;
21806;SDS011;11065;50.786;7.840;2022-09-02T11:03:57;1.17;;;0.80;;
21806;SDS011;11065;50.786;7.840;2022-09-02T11:06:34;1.45;;;0.80;;
21806;SDS011;11065;50.786;7.840;2022-09-02T11:09:27;2.13;;;0.70;;
21806;SDS011;11065;50.786;7.840;2022-09-02T11:11:57;2.03;;;0.80;;
21806;SDS011;11065;50.786;7.840;2022-09-02T11:17:36;0.82;;;0.60;;
21806;SDS011;11065;50.786;7.840;2022-09-02T11:20:27;1.05;;;0.80;;
21806;SDS011;11065;50.786;7.840;2022-09-02T11:23:16;1.75;;;0.75;;
21806;SDS011;11065;50.786;7.840;2022-09-02T11:34:25;3.03;;;0.75;;
21806;SDS011;11065;50.786;7.840;2022-09-02T11:37:06;1.17;;;0.90;;
21806;SDS011;11065;50.786;7.840;2022-09-02T11:39:46;1.77;;;0.85;;
21806;SDS011;11065;50.786;7.840;2022-09-02T11:42:49;0.93;;;0.70;;
21806;SDS011;11065;50.786;7.840;2022-09-02T11:54:22;1.63;;;0.88;;
21806;SDS011;11065;50.786;7.840;2022-09-02T11:56:55;1.23;;;0.60;;
21806;SDS011;11065;50.786;7.840;2022-09-02T12:07:59;1.23;;;0.80;;
21806;SDS011;11065;50.786;7.840;2022-09-02T12:19:24;3.47;;;1.00;;
21806;SDS011;11065;50.786;7.840;2022-09-02T12:21:34;1.20;;;0.80;;
21806;SDS011;11065;50.786;7.840;2022-09-02T12:24:18;1.88;;;0.73;;
21806;SDS011;11065;50.786;7.840;2022-09-02T12:31:48;1.20;;;0.80;;
21806;SDS011;11065;50.786;7.840;2022-09-02T12:47:25;1.15;;;0.90;;
21806;SDS011;11065;50.786;7.840;2022-09-02T12:50:07;3.28;;;0.80;;
21806;SDS011;11065;50.786;7.840;2022-09-02T12:52:49;2.35;;;0.88;;
21806;SDS011;11065;50.786;7.840;2022-09-02T12:55:20;5.30;;;1.10;;
21806;SDS011;11065;50.786;7.840;2022-09-02T12:58:05;2.78;;;0.63;;
21806;SDS011;11065;50.786;7.840;2022-09-02T13:00:50;3.25;;;1.00;;
21806;SDS011;11065;50.786;7.840;2022-09-02T13:09:30;1.30;;;0.75;;
21806;SDS011;11065;50.786;7.840;2022-09-02T13:12:17;2.13;;;0.68;;
21806;SDS011;11065;50.786;7.840;2022-09-02T13:32:21;4.18;;;0.68;;
21806;SDS011;11065;50.786;7.840;2022-09-02T13:34:50;1.20;;;0.70;;
21806;SDS011;11065;50.786;7.840;2022-09-02T13:37:40;1.70;;;0.60;;
21806;SDS011;11065;50.786;7.840;2022-09-02T13:40:16;2.35;;;0.80;;
21806;SDS011;11065;50.786;7.840;2022-09-02T13:42:54;2.67;;;0.90;;
21806;SDS011;11065;50.786;7.840;2022-09-02T13:45:23;0.98;;;0.68;;
21806;SDS011;11065;50.786;7.840;2022-09-02T13:48:14;1.13;;;0.70;;
21806;SDS011;11065;50.786;7.840;2022-09-02T13:50:44;2.63;;;0.80;;
21806;SDS011;11065;50.786;7.840;2022-09-02T13:53:22;1.73;;;0.75;;
21806;SDS011;11065;50.786;7.840;2022-09-02T13:56:30;1.95;;;0.68;;
21806;SDS011;11065;50.786;7.840;2022-09-02T13:58:57;2.03;;;0.80;;
21806;SDS011;11065;50.786;7.840;2022-09-02T14:01:31;1.25;;;0.70;;
21806;SDS011;11065;50.786;7.840;2022-09-02T14:04:03;1.20;;;0.70;;
21806;SDS011;11065;50.786;7.840;2022-09-02T14:06:39;1.90;;;0.80;;
21806;SDS011;11065;50.786;7.840;2022-09-02T14:12:05;2.72;;;0.80;;
21806;SDS011;11065;50.786;7.840;2022-09-02T14:14:32;1.67;;;0.60;;
21806;SDS011;11065;50.786;7.840;2022-09-02T14:17:16;1.15;;;0.70;;
21806;SDS011;11065;50.786;7.840;2022-09-02T14:19:48;1.70;;;0.98;;
21806;SDS011;11065;50.786;7.840;2022-09-02T14:22:30;1.98;;;0.60;;
21806;SDS011;11065;50.786;7.840;2022-09-02T14:24:57;3.75;;;0.70;;
21806;SDS011;11065;50.786;7.840;2022-09-02T14:27:25;0.88;;;0.63;;
21806;SDS011;11065;50.786;7.840;2022-09-02T14:29:55;3.55;;;0.98;;
21806;SDS011;11065;50.786;7.840;2022-09-02T14:32:24;0.95;;;0.60;;
21806;SDS011;11065;50.786;7.840;2022-09-02T14:35:11;1.15;;;0.70;;
21806;SDS011;11065;50.786;7.840;2022-09-02T14:37:46;1.20;;;0.73;;
21806;SDS011;11065;50.786;7.840;2022-09-02T14:40:17;2.08;;;0.60;;
21806;SDS011;11065;50.786;7.840;2022-09-02T14:43:00;1.40;;;0.80;;
21806;SDS011;11065;50.786;7.840;2022-09-02T14:45:29;2.13;;;0.68;;
21806;SDS011;11065;50.786;7.840;2022-09-02T14:47:58;1.08;;;0.60;;
21806;SDS011;11065;50.786;7.840;2022-09-02T14:50:29;1.45;;;0.75;;
21806;SDS011;11065;50.786;7.840;2022-09-02T14:53:04;0.95;;;0.68;;
21806;SDS011;11065;50.786;7.840;2022-09-02T14:58:20;3.65;;;0.70;;
21806;SDS011;11065;50.786;7.840;2022-09-02T15:00:53;1.63;;;0.70;;
21806;SDS011;11065;50.786;7.840;2022-09-02T15:03:21;2.15;;;0.52;;
21806;SDS011;11065;50.786;7.840;2022-09-02T15:05:49;0.90;;;0.70;;
21806;SDS011;11065;50.786;7.840;2022-09-02T15:08:17;2.45;;;0.60;;
21806;SDS011;11065;50.786;7.840;2022-09-02T15:10:44;3.33;;;0.70;;
21806;SDS011;11065;50.786;7.840;2022-09-02T15:13:12;2.25;;;0.50;;
21806;SDS011;11065;50.786;7.840;2022-09-02T15:15:46;1.23;;;0.63;;
21806;SDS011;11065;50.786;7.840;2022-09-02T15:18:15;0.60;;;0.50;;
21806;SDS011;11065;50.786;7.840;2022-09-02T15:20:42;1.33;;;0.77;;
21806;SDS011;11065;50.786;7.840;2022-09-02T15:23:09;6.38;;;0.60;;
21806;SDS011;11065;50.786;7.840;2022-09-02T15:25:36;0.82;;;0.50;;
21806;SDS011;11065;50.786;7.840;2022-09-02T15:28:03;0.95;;;0.60;;
21806;SDS011;11065;50.786;7.840;2022-09-02T15:30:29;2.30;;;0.63;;
21806;SDS011;11065;50.786;7.840;2022-09-02T15:33:03;2.00;;;0.52;;
21806;SDS011;11065;50.786;7.840;2022-09-02T15:35:32;2.67;;;1.08;;
21806;SDS011;11065;50.786;7.840;2022-09-02T15:38:00;0.90;;;0.43;;
21806;SDS011;11065;50.786;7.840;2022-09-02T15:40:28;2.17;;;0.70;;
21806;SDS011;11065;50.786;7.840;2022-09-02T15:42:56;1.65;;;0.70;;
21806;SDS011;11065;50.786;7.840;2022-09-02T15:45:25;0.77;;;0.50;;
21806;SDS011;11065;50.786;7.840;2022-09-02T15:47:55;0.65;;;0.50;;
21806;SDS011;11065;50.786;7.840;2022-09-02T15:50:22;1.70;;;0.60;;
21806;SDS011;11065;50.786;7.840;2022-09-02T15:52:52;0.80;;;0.60;;
21806;SDS011;11065;50.786;7.840;2022-09-02T15:55:21;1.83;;;0.60;;
21806;SDS011;11065;50.786;7.840;2022-09-02T15:57:55;3.42;;;0.68;;
21806;SDS011;11065;50.786;7.840;2022-09-02T16:00:22;1.95;;;0.52;;
21806;SDS011;11065;50.786;7.840;2022-09-02T16:02:53;0.52;;;0.50;;
21806;SDS011;11065;50.786;7.840;2022-09-02T16:05:22;2.72;;;0.60;;
21806;SDS011;11065;50.786;7.840;2022-09-02T16:07:49;1.23;;;0.63;;
21806;SDS011;11065;50.786;7.840;2022-09-02T16:10:17;1.33;;;0.70;;
21806;SDS011;11065;50.786;7.840;2022-09-02T16:12:44;0.90;;;0.60;;
21806;SDS011;11065;50.786;7.840;2022-09-02T16:15:13;1.88;;;0.50;;
21806;SDS011;11065;50.786;7.840;2022-09-02T16:17:40;1.92;;;0.70;;
21806;SDS011;11065;50.786;7.840;2022-09-02T16:20:07;0.57;;;0.43;;
21806;SDS011;11065;50.786;7.840;2022-09-02T16:22:34;3.00;;;0.60;;
21806;SDS011;11065;50.786;7.840;2022-09-02T16:25:01;2.33;;;0.88;;
21806;SDS011;11065;50.786;7.840;2022-09-02T16:27:27;0.85;;;0.50;;
21806;SDS011;11065;50.786;7.840;2022-09-02T16:30:13;1.58;;;0.70;;
21806;SDS011;11065;50.786;7.840;2022-09-02T16:32:40;1.20;;;0.50;;
21806;SDS011;11065;50.786;7.840;2022-09-02T16:38:04;1.38;;;0.68;;
21806;SDS011;11065;50.786;7.840;2022-09-02T16:40:31;1.50;;;0.90;;
21806;SDS011;11065;50.786;7.840;2022-09-02T16:42:58;1.42;;;1.00;;
21806;SDS011;11065;50.786;7.840;2022-09-02T16:45:25;2.58;;;1.63;;
21806;SDS011;11065;50.786;7.840;2022-09-02T16:47:51;2.70;;;1.92;;
21806;SDS011;11065;50.786;7.840;2022-09-02T16:50:18;1.85;;;1.20;;
21806;SDS011;11065;50.786;7.840;2022-09-02T16:52:45;2.28;;;1.27;;
21806;SDS011;11065;50.786;7.840;2022-09-02T16:55:12;2.60;;;1.70;;
21806;SDS011;11065;50.786;7.840;2022-09-02T16:57:43;2.55;;;1.85;;
21806;SDS011;11065;50.786;7.840;2022-09-02T17:00:10;3.78;;;2.40;;
21806;SDS011;11065;50.786;7.840;2022-09-02T17:02:38;3.13;;;1.65;;
21806;SDS011;11065;50.786;7.840;2022-09-02T17:05:05;4.28;;;1.92;;
21806;SDS011;11065;50.786;7.840;2022-09-02T17:07:35;3.25;;;2.17;;
21806;SDS011;11065;50.786;7.840;2022-09-02T17:10:02;2.42;;;1.75;;
21806;SDS011;11065;50.786;7.840;2022-09-02T17:12:29;1.83;;;1.00;;
21806;SDS011;11065;50.786;7.840;2022-09-02T17:14:56;1.55;;;0.85;;
21806;SDS011;11065;50.786;7.840;2022-09-02T17:17:23;2.45;;;0.80;;
21806;SDS011;11065;50.786;7.840;2022-09-02T17:19:50;1.38;;;0.80;;